sensor_id;sensor_type;location;lat;lon;timestamp;pressure;altitude;pressure_sealevel;temperature;humidity
19553;BME280;9420;50.876;7.012;2023-05-01T00:01:54;101167.09;;;49.50;17.32
19553;BME280;9420;50.876;7.012;2023-05-01T00:04:21;101166.56;;;48.94;17.26
19553;BME280;9420;50.876;7.012;2023-05-01T00:06:48;101166.47;;;49.09;17.45
19553;BME280;9420;50.876;7.012;2023-05-01T00:09:15;101168.06;;;49.25;17.31
19553;BME280;9420;50.876;7.012;2023-05-01T00:11:43;101160.88;;;49.09;17.60
19553;BME280;9420;50.876;7.012;2023-05-01T00:14:10;101160.03;;;49.14;17.22
19553;BME280;9420;50.876;7.012;2023-05-01T00:16:39;101156.19;;;49.00;17.37
19553;BME280;9420;50.876;7.012;2023-05-01T00:19:06;101158.56;;;49.21;17.22
19553;BME280;9420;50.876;7.012;2023-05-01T00:21:33;101148.75;;;49.29;17.23
19553;BME280;9420;50.876;7.012;2023-05-01T00:24:00;101153.59;;;49.08;17.24
19553;BME280;9420;50.876;7.012;2023-05-01T00:26:27;101145.81;;;49.00;17.28
19553;BME280;9420;50.876;7.012;2023-05-01T00:28:56;101151.38;;;49.10;17.31
19553;BME280;9420;50.876;7.012;2023-05-01T00:31:23;101142.88;;;48.82;17.76
19553;BME280;9420;50.876;7.012;2023-05-01T00:33:52;101140.03;;;49.35;17.72
19553;BME280;9420;50.876;7.012;2023-05-01T00:36:19;101143.53;;;49.12;17.44
19553;BME280;9420;50.876;7.012;2023-05-01T00:38:46;101139.13;;;48.96;17.59
19553;BME280;9420;50.876;7.012;2023-05-01T00:41:13;101138.66;;;48.89;17.95
19553;BME280;9420;50.876;7.012;2023-05-01T00:43:41;101142.34;;;49.62;17.07
19553;BME280;9420;50.876;7.012;2023-05-01T00:46:09;101137.03;;;49.22;17.49
19553;BME280;9420;50.876;7.012;2023-05-01T00:48:36;101134.78;;;48.80;17.77
19553;BME280;9420;50.876;7.012;2023-05-01T00:51:07;101132.59;;;49.11;17.49
19553;BME280;9420;50.876;7.012;2023-05-01T00:53:35;101127.09;;;49.01;17.44
19553;BME280;9420;50.876;7.012;2023-05-01T00:56:02;101130.34;;;49.18;17.42
19553;BME280;9420;50.876;7.012;2023-05-01T00:58:30;101124.19;;;49.55;17.26
19553;BME280;9420;50.876;7.012;2023-05-01T01:00:57;101122.47;;;49.59;17.24
19553;BME280;9420;50.876;7.012;2023-05-01T01:03:24;101116.81;;;49.69;17.49
19553;BME280;9420;50.876;7.012;2023-05-01T01:05:57;101114.00;;;49.69;17.14
19553;BME280;9420;50.876;7.012;2023-05-01T01:08:38;101119.66;;;49.59;17.34
19553;BME280;9420;50.876;7.012;2023-05-01T01:11:15;101103.16;;;49.62;17.49
19553;BME280;9420;50.876;7.012;2023-05-01T01:13:55;101099.66;;;49.75;17.19
19553;BME280;9420;50.876;7.012;2023-05-01T01:16:31;101093.41;;;50.07;16.85
19553;BME280;9420;50.876;7.012;2023-05-01T01:19:10;101085.75;;;49.65;17.14
19553;BME280;9420;50.876;7.012;2023-05-01T01:21:43;101101.19;;;49.63;16.76
19553;BME280;9420;50.876;7.012;2023-05-01T01:24:47;101093.03;;;49.32;16.88
19553;BME280;9420;50.876;7.012;2023-05-01T01:31:09;101090.78;;;49.34;16.80
19553;BME280;9420;50.876;7.012;2023-05-01T01:34:02;101090.94;;;49.09;17.26
19553;BME280;9420;50.876;7.012;2023-05-01T01:36:40;101089.53;;;49.51;17.48
19553;BME280;9420;50.876;7.012;2023-05-01T01:39:20;101085.00;;;49.21;17.53
19553;BME280;9420;50.876;7.012;2023-05-01T01:41:51;101085.84;;;49.21;17.35
19553;BME280;9420;50.876;7.012;2023-05-01T01:44:26;101080.88;;;49.08;17.54
19553;BME280;9420;50.876;7.012;2023-05-01T01:46:55;101067.06;;;49.27;17.35
19553;BME280;9420;50.876;7.012;2023-05-01T01:49:28;101069.38;;;49.49;17.15
19553;BME280;9420;50.876;7.012;2023-05-01T01:51:58;101063.44;;;49.21;17.17
19553;BME280;9420;50.876;7.012;2023-05-01T01:54:34;101062.03;;;49.58;16.93
19553;BME280;9420;50.876;7.012;2023-05-01T01:57:03;101066.78;;;49.23;17.04
19553;BME280;9420;50.876;7.012;2023-05-01T01:59:34;101063.50;;;49.11;17.29
19553;BME280;9420;50.876;7.012;2023-05-01T02:02:02;101053.81;;;48.99;17.27
19553;BME280;9420;50.876;7.012;2023-05-01T02:04:33;101053.16;;;49.46;17.10
19553;BME280;9420;50.876;7.012;2023-05-01T02:07:03;101052.59;;;49.15;17.05
19553;BME280;9420;50.876;7.012;2023-05-01T02:09:33;101049.00;;;49.48;17.25
19553;BME280;9420;50.876;7.012;2023-05-01T02:12:04;101044.78;;;49.74;17.11
19553;BME280;9420;50.876;7.012;2023-05-01T02:14:34;101043.81;;;49.60;17.26
19553;BME280;9420;50.876;7.012;2023-05-01T02:17:01;101044.06;;;49.64;16.86
19553;BME280;9420;50.876;7.012;2023-05-01T02:19:33;101040.91;;;49.42;16.96
19553;BME280;9420;50.876;7.012;2023-05-01T02:22:01;101035.53;;;49.45;17.05
19553;BME280;9420;50.876;7.012;2023-05-01T02:24:33;101029.41;;;49.72;17.09
19553;BME280;9420;50.876;7.012;2023-05-01T02:27:09;101028.56;;;49.43;16.85
19553;BME280;9420;50.876;7.012;2023-05-01T02:29:37;101027.78;;;49.03;17.08
19553;BME280;9420;50.876;7.012;2023-05-01T02:32:04;101019.88;;;49.73;16.85
19553;BME280;9420;50.876;7.012;2023-05-01T02:34:34;101025.16;;;49.51;17.37
19553;BME280;9420;50.876;7.012;2023-05-01T02:37:03;101016.59;;;49.37;17.14
19553;BME280;9420;50.876;7.012;2023-05-01T02:39:32;101016.75;;;49.51;16.73
19553;BME280;9420;50.876;7.012;2023-05-01T02:42:01;101019.28;;;49.18;16.75
19553;BME280;9420;50.876;7.012;2023-05-01T02:44:35;101002.38;;;49.86;16.77
19553;BME280;9420;50.876;7.012;2023-05-01T02:47:06;100997.19;;;49.46;16.45
19553;BME280;9420;50.876;7.012;2023-05-01T02:49:37;101003.06;;;49.73;16.58
19553;BME280;9420;50.876;7.012;2023-05-01T02:52:06;100997.34;;;49.59;16.80
19553;BME280;9420;50.876;7.012;2023-05-01T02:54:33;100999.75;;;49.71;16.63
19553;BME280;9420;50.876;7.012;2023-05-01T02:57:03;100992.81;;;49.34;16.46
19553;BME280;9420;50.876;7.012;2023-05-01T02:59:30;100991.75;;;49.59;16.40
19553;BME280;9420;50.876;7.012;2023-05-01T03:01:57;100995.19;;;49.51;16.65
19553;BME280;9420;50.876;7.012;2023-05-01T03:04:24;100991.09;;;49.38;16.54
19553;BME280;9420;50.876;7.012;2023-05-01T03:06:53;100989.06;;;49.20;16.48
19553;BME280;9420;50.876;7.012;2023-05-01T03:09:20;100982.53;;;48.96;16.77
19553;BME280;9420;50.876;7.012;2023-05-01T03:11:47;100981.22;;;49.22;16.50
19553;BME280;9420;50.876;7.012;2023-05-01T03:14:15;100975.97;;;49.16;16.56
19553;BME280;9420;50.876;7.012;2023-05-01T03:16:42;100977.91;;;48.82;16.72
19553;BME280;9420;50.876;7.012;2023-05-01T03:19:09;100976.25;;;49.09;16.51
19553;BME280;9420;50.876;7.012;2023-05-01T03:21:36;100962.75;;;49.21;16.64
19553;BME280;9420;50.876;7.012;2023-05-01T03:24:05;100971.69;;;48.90;16.31
19553;BME280;9420;50.876;7.012;2023-05-01T03:26:32;100962.31;;;48.71;16.76
19553;BME280;9420;50.876;7.012;2023-05-01T03:28:59;100965.38;;;48.69;16.35
19553;BME280;9420;50.876;7.012;2023-05-01T03:31:26;100962.91;;;49.01;16.49
19553;BME280;9420;50.876;7.012;2023-05-01T03:33:53;100953.56;;;48.82;16.77
19553;BME280;9420;50.876;7.012;2023-05-01T03:36:20;100957.72;;;48.51;16.85
19553;BME280;9420;50.876;7.012;2023-05-01T03:38:48;100953.91;;;48.32;16.79
19553;BME280;9420;50.876;7.012;2023-05-01T03:41:16;100955.28;;;48.73;17.01
19553;BME280;9420;50.876;7.012;2023-05-01T03:43:43;100959.22;;;48.72;16.90
19553;BME280;9420;50.876;7.012;2023-05-01T03:46:10;100950.38;;;48.60;16.38
19553;BME280;9420;50.876;7.012;2023-05-01T03:48:37;100952.72;;;48.82;16.46
19553;BME280;9420;50.876;7.012;2023-05-01T03:51:05;100958.88;;;48.45;16.88
19553;BME280;9420;50.876;7.012;2023-05-01T03:53:31;100955.50;;;48.43;16.59
19553;BME280;9420;50.876;7.012;2023-05-01T03:55:58;100949.88;;;48.53;16.69
19553;BME280;9420;50.876;7.012;2023-05-01T03:58:27;100952.16;;;48.41;16.60
19553;BME280;9420;50.876;7.012;2023-05-01T04:00:54;100950.72;;;48.53;16.76
19553;BME280;9420;50.876;7.012;2023-05-01T04:03:25;100941.50;;;48.48;16.53
19553;BME280;9420;50.876;7.012;2023-05-01T04:05:53;100951.41;;;48.69;16.71
19553;BME280;9420;50.876;7.012;2023-05-01T04:08:20;100943.94;;;48.59;16.88
19553;BME280;9420;50.876;7.012;2023-05-01T04:10:47;100950.00;;;48.33;16.93
19553;BME280;9420;50.876;7.012;2023-05-01T04:13:14;100944.97;;;48.30;16.74
19553;BME280;9420;50.876;7.012;2023-05-01T04:15:45;100940.44;;;48.39;16.92
19553;BME280;9420;50.876;7.012;2023-05-01T04:18:12;100940.78;;;48.27;16.74
19553;BME280;9420;50.876;7.012;2023-05-01T04:20:39;100945.69;;;47.97;16.99
19553;BME280;9420;50.876;7.012;2023-05-01T04:23:06;100940.00;;;48.17;17.06
19553;BME280;9420;50.876;7.012;2023-05-01T04:25:34;100940.31;;;48.10;16.91
19553;BME280;9420;50.876;7.012;2023-05-01T04:28:01;100939.63;;;47.79;17.02
19553;BME280;9420;50.876;7.012;2023-05-01T04:30:29;100939.56;;;47.89;17.31
19553;BME280;9420;50.876;7.012;2023-05-01T04:32:58;100942.06;;;47.91;17.36
19553;BME280;9420;50.876;7.012;2023-05-01T04:35:25;100940.50;;;47.70;17.53
19553;BME280;9420;50.876;7.012;2023-05-01T04:37:52;100940.19;;;47.76;17.51
19553;BME280;9420;50.876;7.012;2023-05-01T04:40:19;100939.31;;;47.86;17.53
19553;BME280;9420;50.876;7.012;2023-05-01T04:42:46;100939.50;;;48.00;17.25
19553;BME280;9420;50.876;7.012;2023-05-01T04:45:14;100952.91;;;48.08;17.35
19553;BME280;9420;50.876;7.012;2023-05-01T04:47:41;100944.84;;;47.96;17.52
19553;BME280;9420;50.876;7.012;2023-05-01T04:50:10;100939.56;;;47.89;17.52
19553;BME280;9420;50.876;7.012;2023-05-01T04:52:37;100948.00;;;47.74;17.23
19553;BME280;9420;50.876;7.012;2023-05-01T04:55:06;100942.84;;;48.12;17.43
19553;BME280;9420;50.876;7.012;2023-05-01T04:57:34;100947.47;;;48.31;17.05
19553;BME280;9420;50.876;7.012;2023-05-01T05:00:01;100950.94;;;48.57;16.94
19553;BME280;9420;50.876;7.012;2023-05-01T05:02:28;100953.34;;;48.30;17.17
19553;BME280;9420;50.876;7.012;2023-05-01T05:04:55;100943.19;;;48.49;17.17
19553;BME280;9420;50.876;7.012;2023-05-01T05:07:24;100940.97;;;48.46;16.99
19553;BME280;9420;50.876;7.012;2023-05-01T05:09:51;100943.75;;;48.51;17.25
19553;BME280;9420;50.876;7.012;2023-05-01T05:12:18;100948.22;;;48.42;17.64
19553;BME280;9420;50.876;7.012;2023-05-01T05:14:46;100945.25;;;48.28;16.98
19553;BME280;9420;50.876;7.012;2023-05-01T05:17:13;100944.53;;;48.95;17.12
19553;BME280;9420;50.876;7.012;2023-05-01T05:19:40;100938.47;;;48.83;17.33
19553;BME280;9420;50.876;7.012;2023-05-01T05:22:07;100937.56;;;49.21;17.36
19553;BME280;9420;50.876;7.012;2023-05-01T05:24:38;100933.94;;;49.45;17.62
19553;BME280;9420;50.876;7.012;2023-05-01T05:27:05;100939.28;;;49.17;17.47
19553;BME280;9420;50.876;7.012;2023-05-01T05:29:33;100938.47;;;49.41;17.44
19553;BME280;9420;50.876;7.012;2023-05-01T05:32:00;100934.84;;;49.11;17.23
19553;BME280;9420;50.876;7.012;2023-05-01T05:34:27;100937.09;;;49.38;17.41
19553;BME280;9420;50.876;7.012;2023-05-01T05:36:54;100943.28;;;49.64;17.01
19553;BME280;9420;50.876;7.012;2023-05-01T05:39:21;100940.28;;;49.79;17.08
19553;BME280;9420;50.876;7.012;2023-05-01T05:41:50;100942.78;;;49.57;17.40
19553;BME280;9420;50.876;7.012;2023-05-01T05:44:18;100940.66;;;49.72;16.77
19553;BME280;9420;50.876;7.012;2023-05-01T05:46:45;100936.47;;;49.93;16.88
19553;BME280;9420;50.876;7.012;2023-05-01T05:49:13;100935.56;;;49.74;16.49
19553;BME280;9420;50.876;7.012;2023-05-01T05:51:40;100938.72;;;49.68;17.06
19553;BME280;9420;50.876;7.012;2023-05-01T05:54:07;100934.97;;;50.01;16.61
19553;BME280;9420;50.876;7.012;2023-05-01T05:56:34;100942.06;;;50.36;16.40
19553;BME280;9420;50.876;7.012;2023-05-01T05:59:03;100927.38;;;50.25;16.37
19553;BME280;9420;50.876;7.012;2023-05-01T06:01:31;100934.19;;;50.38;16.42
19553;BME280;9420;50.876;7.012;2023-05-01T06:03:58;100934.31;;;50.46;16.41
19553;BME280;9420;50.876;7.012;2023-05-01T06:06:25;100936.50;;;50.49;16.22
19553;BME280;9420;50.876;7.012;2023-05-01T06:08:52;100934.03;;;50.29;16.35
19553;BME280;9420;50.876;7.012;2023-05-01T06:11:20;100938.50;;;50.67;16.26
19553;BME280;9420;50.876;7.012;2023-05-01T06:13:47;100932.50;;;50.55;16.38
19553;BME280;9420;50.876;7.012;2023-05-01T06:16:15;100926.16;;;50.31;16.24
19553;BME280;9420;50.876;7.012;2023-05-01T06:18:42;100928.44;;;50.99;15.83
19553;BME280;9420;50.876;7.012;2023-05-01T06:21:10;100929.75;;;50.88;16.28
19553;BME280;9420;50.876;7.012;2023-05-01T06:23:37;100931.66;;;51.06;16.30
19553;BME280;9420;50.876;7.012;2023-05-01T06:26:05;100920.66;;;51.09;15.89
19553;BME280;9420;50.876;7.012;2023-05-01T06:28:33;100923.81;;;51.21;15.96
19553;BME280;9420;50.876;7.012;2023-05-01T06:31:00;100922.91;;;50.94;16.02
19553;BME280;9420;50.876;7.012;2023-05-01T06:33:29;100930.31;;;51.03;16.37
19553;BME280;9420;50.876;7.012;2023-05-01T06:35:56;100920.63;;;50.96;15.69
19553;BME280;9420;50.876;7.012;2023-05-01T06:38:24;100921.50;;;50.77;15.85
19553;BME280;9420;50.876;7.012;2023-05-01T06:40:51;100921.25;;;50.93;16.19
19553;BME280;9420;50.876;7.012;2023-05-01T06:43:18;100925.31;;;51.14;15.82
19553;BME280;9420;50.876;7.012;2023-05-01T06:45:46;100922.72;;;51.63;15.48
19553;BME280;9420;50.876;7.012;2023-05-01T06:48:13;100926.22;;;51.82;15.95
19553;BME280;9420;50.876;7.012;2023-05-01T06:50:42;100920.50;;;51.33;15.92
19553;BME280;9420;50.876;7.012;2023-05-01T06:53:13;100918.44;;;51.52;15.92
19553;BME280;9420;50.876;7.012;2023-05-01T06:55:40;100915.75;;;51.61;16.23
19553;BME280;9420;50.876;7.012;2023-05-01T06:58:07;100915.50;;;51.71;15.75
19553;BME280;9420;50.876;7.012;2023-05-01T07:00:34;100919.25;;;51.39;16.06
19553;BME280;9420;50.876;7.012;2023-05-01T07:03:02;100920.50;;;51.87;15.40
19553;BME280;9420;50.876;7.012;2023-05-01T07:05:29;100925.50;;;51.90;15.68
19553;BME280;9420;50.876;7.012;2023-05-01T07:07:58;100919.25;;;51.80;15.79
19553;BME280;9420;50.876;7.012;2023-05-01T07:10:26;100915.75;;;51.74;15.51
19553;BME280;9420;50.876;7.012;2023-05-01T07:12:53;100917.00;;;51.68;15.55
19553;BME280;9420;50.876;7.012;2023-05-01T07:15:21;100917.81;;;51.82;15.59
19553;BME280;9420;50.876;7.012;2023-05-01T07:17:49;100905.94;;;51.85;15.73
19553;BME280;9420;50.876;7.012;2023-05-01T07:20:17;100908.25;;;51.56;15.56
19553;BME280;9420;50.876;7.012;2023-05-01T07:22:44;100911.97;;;51.92;15.44
19553;BME280;9420;50.876;7.012;2023-05-01T07:25:12;100910.72;;;51.98;15.44
19553;BME280;9420;50.876;7.012;2023-05-01T07:27:39;100918.03;;;52.79;15.13
19553;BME280;9420;50.876;7.012;2023-05-01T07:30:07;100910.06;;;52.51;15.37
19553;BME280;9420;50.876;7.012;2023-05-01T07:32:35;100907.81;;;51.49;15.31
19553;BME280;9420;50.876;7.012;2023-05-01T07:35:03;100911.31;;;52.58;14.99
19553;BME280;9420;50.876;7.012;2023-05-01T07:37:30;100909.97;;;52.42;15.14
19553;BME280;9420;50.876;7.012;2023-05-01T07:39:57;100907.91;;;52.48;15.22
19553;BME280;9420;50.876;7.012;2023-05-01T07:42:27;100904.63;;;52.54;15.17
19553;BME280;9420;50.876;7.012;2023-05-01T07:44:54;100901.19;;;52.44;15.12
19553;BME280;9420;50.876;7.012;2023-05-01T07:47:20;100896.41;;;52.08;15.42
19553;BME280;9420;50.876;7.012;2023-05-01T07:49:47;100903.56;;;52.64;15.33
19553;BME280;9420;50.876;7.012;2023-05-01T07:52:15;100903.28;;;52.74;15.29
19553;BME280;9420;50.876;7.012;2023-05-01T07:54:42;100893.31;;;52.90;15.85
19553;BME280;9420;50.876;7.012;2023-05-01T07:57:08;100897.94;;;52.64;15.26
19553;BME280;9420;50.876;7.012;2023-05-01T07:59:37;100909.03;;;52.24;15.07
19553;BME280;9420;50.876;7.012;2023-05-01T08:02:04;100908.28;;;52.55;15.50
19553;BME280;9420;50.876;7.012;2023-05-01T08:04:31;100905.47;;;52.77;15.89
19553;BME280;9420;50.876;7.012;2023-05-01T08:06:58;100899.28;;;53.58;15.18
19553;BME280;9420;50.876;7.012;2023-05-01T08:09:25;100900.59;;;52.47;15.70
19553;BME280;9420;50.876;7.012;2023-05-01T08:11:52;100897.81;;;53.30;15.46
19553;BME280;9420;50.876;7.012;2023-05-01T08:14:19;100898.13;;;52.89;15.20
19553;BME280;9420;50.876;7.012;2023-05-01T08:16:48;100909.13;;;52.19;15.30
19553;BME280;9420;50.876;7.012;2023-05-01T08:19:19;100909.28;;;52.59;14.89
19553;BME280;9420;50.876;7.012;2023-05-01T08:21:47;100893.88;;;53.31;14.90
19553;BME280;9420;50.876;7.012;2023-05-01T08:24:15;100899.81;;;53.21;14.99
19553;BME280;9420;50.876;7.012;2023-05-01T08:26:42;100896.81;;;53.26;15.28
19553;BME280;9420;50.876;7.012;2023-05-01T08:29:09;100903.78;;;52.76;15.17
19553;BME280;9420;50.876;7.012;2023-05-01T08:31:36;100893.13;;;53.17;15.13
19553;BME280;9420;50.876;7.012;2023-05-01T08:34:05;100889.13;;;53.49;15.12
19553;BME280;9420;50.876;7.012;2023-05-01T08:36:34;100889.16;;;53.57;15.00
19553;BME280;9420;50.876;7.012;2023-05-01T08:39:01;100889.13;;;53.49;14.89
19553;BME280;9420;50.876;7.012;2023-05-01T08:41:31;100891.09;;;54.05;15.18
19553;BME280;9420;50.876;7.012;2023-05-01T08:43:59;100888.13;;;53.45;14.97
19553;BME280;9420;50.876;7.012;2023-05-01T08:46:37;100900.50;;;53.35;15.34
19553;BME280;9420;50.876;7.012;2023-05-01T08:49:14;100887.81;;;54.45;14.93
19553;BME280;9420;50.876;7.012;2023-05-01T08:51:44;100894.22;;;54.03;14.79
19553;BME280;9420;50.876;7.012;2023-05-01T08:54:12;100889.66;;;54.41;14.64
19553;BME280;9420;50.876;7.012;2023-05-01T08:56:42;100894.69;;;53.71;15.14
19553;BME280;9420;50.876;7.012;2023-05-01T08:59:12;100888.94;;;53.93;14.89
19553;BME280;9420;50.876;7.012;2023-05-01T09:01:41;100880.84;;;53.44;14.93
19553;BME280;9420;50.876;7.012;2023-05-01T09:04:10;100888.06;;;52.75;15.38
19553;BME280;9420;50.876;7.012;2023-05-01T09:06:38;100889.03;;;53.23;15.65
19553;BME280;9420;50.876;7.012;2023-05-01T09:09:05;100882.16;;;54.37;15.09
19553;BME280;9420;50.876;7.012;2023-05-01T09:11:32;100891.09;;;54.05;14.75
19553;BME280;9420;50.876;7.012;2023-05-01T09:14:02;100881.66;;;54.26;15.22
19553;BME280;9420;50.876;7.012;2023-05-01T09:16:30;100884.47;;;54.61;15.24
19553;BME280;9420;50.876;7.012;2023-05-01T09:18:57;100880.66;;;54.22;15.42
19553;BME280;9420;50.876;7.012;2023-05-01T09:21:27;100873.19;;;54.18;15.01
19553;BME280;9420;50.876;7.012;2023-05-01T09:23:56;100882.41;;;54.95;15.12
19553;BME280;9420;50.876;7.012;2023-05-01T09:26:23;100885.78;;;54.80;14.61
19553;BME280;9420;50.876;7.012;2023-05-01T09:28:51;100882.84;;;54.51;14.90
19553;BME280;9420;50.876;7.012;2023-05-01T09:31:24;100880.97;;;54.72;14.71
19553;BME280;9420;50.876;7.012;2023-05-01T09:33:55;100882.50;;;54.61;14.85
19553;BME280;9420;50.876;7.012;2023-05-01T09:36:24;100884.13;;;54.79;14.25
19553;BME280;9420;50.876;7.012;2023-05-01T09:38:54;100878.66;;;54.74;14.14
19553;BME280;9420;50.876;7.012;2023-05-01T09:41:22;100875.78;;;54.91;15.19
19553;BME280;9420;50.876;7.012;2023-05-01T09:43:51;100876.09;;;54.98;14.81
19553;BME280;9420;50.876;7.012;2023-05-01T09:46:19;100873.69;;;54.71;14.03
19553;BME280;9420;50.876;7.012;2023-05-01T09:48:58;100876.09;;;54.98;14.47
19553;BME280;9420;50.876;7.012;2023-05-01T09:51:27;100879.50;;;54.58;14.58
19553;BME280;9420;50.876;7.012;2023-05-01T09:53:59;100872.16;;;55.66;13.93
19553;BME280;9420;50.876;7.012;2023-05-01T09:56:28;100879.34;;;54.45;14.21
19553;BME280;9420;50.876;7.012;2023-05-01T09:58:57;100875.53;;;54.33;14.08
19553;BME280;9420;50.876;7.012;2023-05-01T10:01:38;100877.31;;;53.78;14.30
19553;BME280;9420;50.876;7.012;2023-05-01T10:04:07;100869.47;;;54.94;13.77
19553;BME280;9420;50.876;7.012;2023-05-01T10:06:37;100866.50;;;53.62;13.95
19553;BME280;9420;50.876;7.012;2023-05-01T10:09:07;100875.00;;;54.65;13.62
19553;BME280;9420;50.876;7.012;2023-05-01T10:11:48;100872.50;;;53.87;14.08
19553;BME280;9420;50.876;7.012;2023-05-01T10:14:16;100867.75;;;54.21;14.16
19553;BME280;9420;50.876;7.012;2023-05-01T10:16:45;100862.44;;;56.17;13.11
19553;BME280;9420;50.876;7.012;2023-05-01T10:19:16;100856.06;;;57.30;12.64
19553;BME280;9420;50.876;7.012;2023-05-01T10:21:43;100863.59;;;56.57;13.10
19553;BME280;9420;50.876;7.012;2023-05-01T10:24:12;100862.44;;;56.58;13.86
19553;BME280;9420;50.876;7.012;2023-05-01T10:26:41;100856.66;;;57.60;13.30
19553;BME280;9420;50.876;7.012;2023-05-01T10:29:11;100856.16;;;56.98;13.11
19553;BME280;9420;50.876;7.012;2023-05-01T10:31:38;100854.94;;;55.51;13.52
19553;BME280;9420;50.876;7.012;2023-05-01T10:34:05;100854.66;;;58.12;13.28
19553;BME280;9420;50.876;7.012;2023-05-01T10:36:38;100853.56;;;57.05;13.70
19553;BME280;9420;50.876;7.012;2023-05-01T10:39:29;100852.84;;;56.84;14.13
19553;BME280;9420;50.876;7.012;2023-05-01T10:42:00;100842.34;;;57.81;13.43
19553;BME280;9420;50.876;7.012;2023-05-01T10:44:29;100846.28;;;57.52;13.84
19553;BME280;9420;50.876;7.012;2023-05-01T10:46:57;100848.97;;;57.36;13.54
19553;BME280;9420;50.876;7.012;2023-05-01T10:49:24;100845.69;;;56.65;13.33
19553;BME280;9420;50.876;7.012;2023-05-01T10:51:58;100838.03;;;57.47;13.87
19553;BME280;9420;50.876;7.012;2023-05-01T10:54:28;100837.63;;;56.88;14.03
19553;BME280;9420;50.876;7.012;2023-05-01T10:56:58;100829.66;;;57.14;14.32
19553;BME280;9420;50.876;7.012;2023-05-01T10:59:26;100825.53;;;57.48;13.02
19553;BME280;9420;50.876;7.012;2023-05-01T11:01:53;100831.09;;;55.60;14.14
19553;BME280;9420;50.876;7.012;2023-05-01T11:04:47;100828.88;;;56.48;13.67
19553;BME280;9420;50.876;7.012;2023-05-01T11:07:20;100827.16;;;57.13;13.58
19553;BME280;9420;50.876;7.012;2023-05-01T11:09:51;100832.28;;;56.75;13.91
19553;BME280;9420;50.876;7.012;2023-05-01T11:12:50;100827.25;;;56.47;13.17
19553;BME280;9420;50.876;7.012;2023-05-01T11:15:29;100831.97;;;56.43;14.37
19553;BME280;9420;50.876;7.012;2023-05-01T11:17:58;100827.31;;;56.71;14.12
19553;BME280;9420;50.876;7.012;2023-05-01T11:20:48;100821.03;;;57.23;13.08
19553;BME280;9420;50.876;7.012;2023-05-01T11:23:22;100823.22;;;57.66;13.29
19553;BME280;9420;50.876;7.012;2023-05-01T11:26:01;100812.22;;;59.18;13.48
19553;BME280;9420;50.876;7.012;2023-05-01T11:28:30;100820.44;;;59.23;13.00
19553;BME280;9420;50.876;7.012;2023-05-01T11:30:58;100824.56;;;58.95;12.82
19553;BME280;9420;50.876;7.012;2023-05-01T11:33:26;100817.22;;;58.94;13.23
19553;BME280;9420;50.876;7.012;2023-05-01T11:35:58;100815.81;;;59.34;12.87
19553;BME280;9420;50.876;7.012;2023-05-01T11:38:25;100814.03;;;58.95;13.57
19553;BME280;9420;50.876;7.012;2023-05-01T11:41:00;100813.78;;;59.50;12.72
19553;BME280;9420;50.876;7.012;2023-05-01T11:43:28;100814.47;;;59.28;12.68
19553;BME280;9420;50.876;7.012;2023-05-01T11:45:56;100807.44;;;58.91;13.75
19553;BME280;9420;50.876;7.012;2023-05-01T11:48:29;100808.16;;;60.27;13.29
19553;BME280;9420;50.876;7.012;2023-05-01T11:50:57;100815.47;;;59.90;12.36
19553;BME280;9420;50.876;7.012;2023-05-01T11:53:24;100802.72;;;59.64;12.82
19553;BME280;9420;50.876;7.012;2023-05-01T11:55:51;100801.09;;;59.63;12.61
19553;BME280;9420;50.876;7.012;2023-05-01T11:58:32;100805.38;;;60.72;12.39
19553;BME280;9420;50.876;7.012;2023-05-01T12:01:00;100796.81;;;59.19;12.81
19553;BME280;9420;50.876;7.012;2023-05-01T12:03:40;100796.19;;;58.95;13.08
19553;BME280;9420;50.876;7.012;2023-05-01T12:06:09;100797.50;;;60.66;12.23
19553;BME280;9420;50.876;7.012;2023-05-01T12:08:42;100788.94;;;61.97;11.86
19553;BME280;9420;50.876;7.012;2023-05-01T12:11:10;100786.13;;;60.66;12.34
19553;BME280;9420;50.876;7.012;2023-05-01T12:13:40;100786.69;;;60.52;12.60
19553;BME280;9420;50.876;7.012;2023-05-01T12:16:08;100788.28;;;61.47;12.19
19553;BME280;9420;50.876;7.012;2023-05-01T12:18:36;100787.59;;;59.76;11.79
19553;BME280;9420;50.876;7.012;2023-05-01T12:21:04;100769.28;;;61.02;10.86
19553;BME280;9420;50.876;7.012;2023-05-01T12:23:33;100787.03;;;57.47;12.03
19553;BME280;9420;50.876;7.012;2023-05-01T12:26:14;100796.47;;;54.84;12.79
19553;BME280;9420;50.876;7.012;2023-05-01T12:28:55;100784.03;;;55.14;14.22
19553;BME280;9420;50.876;7.012;2023-05-01T12:31:23;100790.56;;;50.92;14.34
19553;BME280;9420;50.876;7.012;2023-05-01T12:33:55;100780.72;;;55.71;12.46
19553;BME280;9420;50.876;7.012;2023-05-01T12:36:24;100781.41;;;57.23;11.96
19553;BME280;9420;50.876;7.012;2023-05-01T12:39:00;100787.44;;;56.20;12.80
19553;BME280;9420;50.876;7.012;2023-05-01T12:41:34;100787.72;;;51.46;13.15
19553;BME280;9420;50.876;7.012;2023-05-01T12:44:16;100780.06;;;55.15;12.89
19553;BME280;9420;50.876;7.012;2023-05-01T12:46:51;100781.22;;;55.44;12.72
19553;BME280;9420;50.876;7.012;2023-05-01T12:49:19;100788.63;;;52.71;12.56
19553;BME280;9420;50.876;7.012;2023-05-01T12:51:47;100776.19;;;52.41;13.30
19553;BME280;9420;50.876;7.012;2023-05-01T12:54:19;100782.00;;;54.14;12.21
19553;BME280;9420;50.876;7.012;2023-05-01T12:56:46;100777.84;;;56.45;11.41
19553;BME280;9420;50.876;7.012;2023-05-01T12:59:23;100774.00;;;58.84;11.38
19553;BME280;9420;50.876;7.012;2023-05-01T13:01:57;100776.22;;;59.76;11.44
19553;BME280;9420;50.876;7.012;2023-05-01T13:04:26;100775.31;;;57.61;12.35
19553;BME280;9420;50.876;7.012;2023-05-01T13:06:54;100776.59;;;59.94;11.33
19553;BME280;9420;50.876;7.012;2023-05-01T13:09:21;100768.56;;;59.99;10.66
19553;BME280;9420;50.876;7.012;2023-05-01T13:11:57;100771.47;;;56.93;11.92
19553;BME280;9420;50.876;7.012;2023-05-01T13:14:26;100766.59;;;54.83;12.52
19553;BME280;9420;50.876;7.012;2023-05-01T13:16:54;100773.03;;;56.33;12.40